Share

Veblen, SD

RAWS MARSHALL CO SD US (MMRLS2) Elev 2009 ft | 45.80 °N, 97.45 °W | Change Station

Current weather conditions updated 52 minutes ago

Clear
Clear
37 °F
Feels Like 37 °F
N
0
Wind Variable Wind from North
Gusts 0.0 mph
Sunrise 6:40 AM
Sunset 8:19 PM
Moon Waning Gibbous

Tomorrow is forecast to be Much Warmer than today.

Pressure 30.25 in
Visibility 10.0 miles
Clouds Clear
Windchill 37 °F
Dew Point 13 °F
Humidity 37%
Rainfall 0.00 in
Snow Depth Not available.
UV 0 out of 16
Pollen 7.60 out of 12
Air Quality Not available.
Flu Activity Sporadic
METAR KGWR 180135Z AUTO 10008KT 10SM CLR 02/M08 A3025 RMK A01 P000

More Conditions Fewer Conditions

Pressure 30.25 in
Visibility 10.0 miles
Clouds Clear
Windchill 37 °F
Dew Point 13 °F
Humidity 37%
Rainfall 0.00 in
Snow Depth Not available.
UV 0 out of 16
Pollen 7.60 out of 12
Air Quality Not available.
Flu Activity Sporadic
METAR KGWR 180135Z AUTO 10008KT 10SM CLR 02/M08 A3025 RMK A01 P000

More Conditions Fewer Conditions

10-Day Forecast

Almanac

Astronomy

Apr. 17, 2014 Rise Set
Actual Time 6:40 AM CDT 8:19 PM CDT
Civil Twilight 6:08 AM CDT 8:50 PM CDT
Nautical Twilight 5:30 AM CDT 9:28 PM CDT
Astronomical Twilight 4:49 AM CDT 10:10 PM CDT
Moon 11:12 PM CDT (4/17) 8:07 AM CDT (4/17)
Length of Visible Light 14h 41m
Length of Day
13h 38m
Tomorrow will be 3m 4s longer.
Waning Gibbous, 91% of the Moon is Illuminated
Today
Waning Gibbous
Apr 22
Last Quarter
Apr 29
New
May 6
First Quarter
May 14
Full

Today's Extremes

State Highs State Lows

Community

  • Morning Light
    Morning Light
  • New Day
    New Day
  • Lake Michigan Sunrise
    Lake Michigan Sunrise
  • sunset from izmir, narlıdere
    sunset from izmir, narlıdere
  • oregon cherry
    oregon cherry

WunderPhotos

Upload Photos

1,702,209 photos uploaded!

WunderBlogs® & News

Nearby

Snow Depth

Station Depth Elevation
North Rapid Creek 22 in 6130 ft
Blind Park 23 in 6890 ft

Coastal Water Temperatures

Place Temperature
No Stations Reporting

Earthquake Activity

City Distance Mag. Time & Date
No recent earthquake activity has been reported nearby.
Minimum magnitude displayed is 2.5.

Nearby Weather Stations

Station Location Temp. Windchill Dew Point Humidity Wind Precip. Elev Updated Type
RAWS MARSHALL CO SD, Lake City, SD 37 °F 37 °F 13 °F 37% North  at  0 mph 0.00 in / hr 2009 ft 7:59 PM CDT MADIS
NonFedAWOS BRITTON , Britton, SD 37 °F 37 °F 18 °F 44% North  at  0 mph 0.00 in / hr 1317 ft 8:15 PM CDT MADIS

Show More Stations Show Fewer Stations

What do you think?

We're not finished. Please let us know what you like, what you don't like, and what you are still missing.